Nicosia, Cyprus
Current Conditions -  °F | °C
As of 1:30 AM on Tuesday 23 Dec 2014 (Local Time) from LCLK Reporting Station
Few Clouds Few Clouds  
Wind Chill: 45°   Ceiling: Unl
Heat Index: 48°   Visibility: 6mi
Dew Point: 36°   Wind: 7mph
Humidity: 62%   Direction: 280°W
Pressure: 30.09"   Gusts: NA
Location:  34.88°N, 33.63°E
Report Text: LCLK 222230Z 28006KT 9999 FEW040 09/02 Q1019 NOSIG
Loading
Personal Weather Stations






























Interactive Weather Map New forecast layout! Learn more

10-Day Weather Forecast

Advertisements
Track Severe Weather on mobile